Pittsburgh International Airport
KPIT : now visible

Airfield :











YOU CAN JOIN US ON...

 
LOGIN :

Register | Disclaimer

   EN    FR    IT 

 









Legend :    VFR   Marginal VFR   IFR   Intensive IFR   Very Intensive IFR
Visi :
Ceiling :
>= 8 km
>= 3000ft
5 to 8 km
1000 to 3000 ft
1500m to 5 km
500 to 1000 ft
800 to 1500m
200 to 500 ft
< 800m
< 200 ft
Symbols :   Thunderstorms  Fog  Heavy snow  Heavy precipitations  Wind > 20 kt






- Airport Elevation : 1203 ft
- IATA code : PIT


KPIT - Pittsburgh International

CURRENT METAR :
  • 261751Z 25011G23KT 10SM OVC005 06/04 A2967 RMK AO2 DZB25E50 SLP061 P0000 60002 I6000 T00560044 10056 20000 50010 $

EXPIRED METARs :
  • 261705Z 23009G19KT 5SM BR BKN003 OVC008 05/04 A2966 RMK AO2 T00500044 $
  • 261651Z 21007KT 1/4SM R28R/4000V6000FT BR OVC002 04/03 A2967 RMK AO2 SFC VIS 3/4 DZE47 SLP063 P0000 T00390033
  • 261551Z 15003KT 1/4SM R28R/3500FT -DZ BR OVC002 02/01 A2964 RMK AO2 SFC VIS 3/4 SLP056 P0001 T00170011

TAF KPIT
Valid from the 26 at 18:00 until the 28 at 00:00 UTC


261724Z 2618/2724 24009G20KT 5SM BR OVC003
FM261900 25010G22KT P6SM OVC006
FM262100 24011G18KT P6SM OVC009
FM270600 28008KT P6SM BKN010
KZOB FIR / North America



MET'MAP, your aeronautical weather chart ! - Copyright ORBIFLY December 2007 - Disclaimer

ORBIFLY MET'MAP TEAM :

Programming & Development : Alexandra Zaïnal
Concept & original design : Baudouin d'Aumeries
Assistance for programming : Marc-Olivier Méhu
Technical & hardware support : Manuel Goepfert

Contact : metmap@orbifly.com




SOURCES & CREDITS :

   NOAA       Earth
Advisory